Jerome, PA (15937)

7:32 PM EST on January 29, 2015 (GMT -0500)
Soap Hollow Road | Change Station
CLOSE
Current Station
Personal Weather Station
Location: Johnstown, PA
Elevation: 1598 ft
Nearby Weather Stations
Active Advisory: Winter Weather Advisory Active Notice: Public Information Statement

Elev 1598 ft 40.26 °N, 78.94 °W | Updated 10 minutes ago

Ice Pellets
Ice Pellets
30.4 °F
Feels Like 30 °F
N
0.0
Wind Variable Wind from SW

Today
High -- | Low -- °F
--% Chance of Precip.
Yesterday
High -- | Low -- °F
Precip. -- in
7:27 AM 5:30 PM
Waxing Gibbous, 78% visible
Pressure 29.78 in
Visibility 3.0 miles
Clouds Overcast 400 ft
Windchill 30 °F
Dew Point 30 °F
Humidity 99%
Rainfall 0.00 in
Snow Depth Not available.
UV 0 out of 12
Pollen .10 out of 12
Air Quality Not available.
Flu Activity Not available.
SPECI KJST 300012Z AUTO 19007KT 3SM -FZRA BR OVC004 M02/M03 A2978 RMK AO2 UPE06FZRAB06 P0001 I1001 T10171028

More Conditions Fewer Conditions

Pressure 29.78 in
Visibility 3.0 miles
Clouds Overcast 400 ft
Windchill 30 °F
Dew Point 30 °F
Humidity 99%
Rainfall 0.00 in
Snow Depth Not available.
UV 0 out of 12
Pollen .10 out of 12
Air Quality Not available.
Flu Activity Not available.
SPECI KJST 300012Z AUTO 19007KT 3SM -FZRA BR OVC004 M02/M03 A2978 RMK AO2 UPE06FZRAB06 P0001 I1001 T10171028

More Conditions Fewer Conditions

Nowcast | as of 6:07 PM EST on January 29, 2015

Scattered snow showers will continue through 8 PM. Sleet will mix with the snow at times. In between snow showers...pockets of freezing drizzle are possible. Persons traveling this evening should be alert for snowy roads...icy spots and allow extra travel time.

×

10-Day Weather Forecast

Almanac

Astronomy

Jan. 29, 2015 Rise Set
Actual Time
Civil Twilight
Nautical Twilight
Astronomical Twilight
Moon
Length of Visible Light
Length of Day
Tomorrow will be .
, % of the Moon is Illuminated

Today's Extremes

State Highs State Lows

Community

WunderPhotos

Upload Photos

1,791,656 photos uploaded!

WunderBlogs® & News

Nearby

Air Quality

  Air Quality AQ Index Pollutant
Not available.

Snow Depth

Station Depth Elevation

Earthquake Activity

City Distance Mag. Time & Date
Minimum magnitude displayed is 2.5.

Coastal Water Temperatures

Place Temperature

Nearby Weather Stations